sensor_id;sensor_type;location;lat;lon;timestamp;pressure;altitude;pressure_sealevel;temperature;humidity
28167;BME280;15455;53.376;-6.262;2024-02-26T00:00:26;100705.84;;;3.08;100.00
28167;BME280;15455;53.376;-6.262;2024-02-26T00:03:12;100716.13;;;3.07;100.00
28167;BME280;15455;53.376;-6.262;2024-02-26T00:05:57;100725.00;;;3.17;100.00
28167;BME280;15455;53.376;-6.262;2024-02-26T00:08:43;100739.66;;;3.19;100.00
28167;BME280;15455;53.376;-6.262;2024-02-26T00:11:28;100737.97;;;3.20;100.00
28167;BME280;15455;53.376;-6.262;2024-02-26T00:14:14;100749.06;;;3.17;100.00
28167;BME280;15455;53.376;-6.262;2024-02-26T00:17:00;100754.25;;;3.19;100.00
28167;BME280;15455;53.376;-6.262;2024-02-26T00:19:45;100758.72;;;3.24;100.00
28167;BME280;15455;53.376;-6.262;2024-02-26T00:22:31;100760.59;;;3.30;100.00
28167;BME280;15455;53.376;-6.262;2024-02-26T00:25:17;100765.13;;;3.39;100.00
28167;BME280;15455;53.376;-6.262;2024-02-26T00:28:04;100772.16;;;3.44;100.00
28167;BME280;15455;53.376;-6.262;2024-02-26T00:30:50;100774.78;;;3.46;100.00
28167;BME280;15455;53.376;-6.262;2024-02-26T00:33:41;100778.25;;;3.48;100.00
28167;BME280;15455;53.376;-6.262;2024-02-26T00:36:27;100779.16;;;3.48;100.00
28167;BME280;15455;53.376;-6.262;2024-02-26T00:39:12;100785.31;;;3.54;100.00
28167;BME280;15455;53.376;-6.262;2024-02-26T00:41:58;100794.09;;;3.60;100.00
28167;BME280;15455;53.376;-6.262;2024-02-26T00:44:44;100796.78;;;3.65;100.00
28167;BME280;15455;53.376;-6.262;2024-02-26T00:47:29;100806.38;;;3.69;100.00
28167;BME280;15455;53.376;-6.262;2024-02-26T00:50:15;100811.59;;;3.72;100.00
28167;BME280;15455;53.376;-6.262;2024-02-26T00:53:01;100809.13;;;3.77;100.00
28167;BME280;15455;53.376;-6.262;2024-02-26T00:55:47;100808.34;;;3.79;100.00
28167;BME280;15455;53.376;-6.262;2024-02-26T00:58:33;100817.06;;;3.83;100.00
28167;BME280;15455;53.376;-6.262;2024-02-26T01:01:19;100813.59;;;3.82;100.00
28167;BME280;15455;53.376;-6.262;2024-02-26T01:04:05;100820.44;;;3.80;100.00
28167;BME280;15455;53.376;-6.262;2024-02-26T01:06:50;100829.06;;;3.82;100.00
28167;BME280;15455;53.376;-6.262;2024-02-26T01:09:36;100830.75;;;3.80;100.00
28167;BME280;15455;53.376;-6.262;2024-02-26T01:12:21;100842.72;;;3.78;100.00
28167;BME280;15455;53.376;-6.262;2024-02-26T01:15:07;100846.16;;;3.77;100.00
28167;BME280;15455;53.376;-6.262;2024-02-26T01:17:54;100852.16;;;3.76;100.00
28167;BME280;15455;53.376;-6.262;2024-02-26T01:20:40;100853.88;;;3.76;100.00
28167;BME280;15455;53.376;-6.262;2024-02-26T01:23:25;100862.41;;;3.73;100.00
28167;BME280;15455;53.376;-6.262;2024-02-26T01:26:11;100875.31;;;3.73;100.00
28167;BME280;15455;53.376;-6.262;2024-02-26T01:28:56;100875.22;;;3.70;100.00
28167;BME280;15455;53.376;-6.262;2024-02-26T01:31:42;100884.69;;;3.71;100.00
28167;BME280;15455;53.376;-6.262;2024-02-26T01:34:27;100889.94;;;3.73;100.00
28167;BME280;15455;53.376;-6.262;2024-02-26T01:37:13;100902.84;;;3.73;100.00
28167;BME280;15455;53.376;-6.262;2024-02-26T01:39:58;100903.66;;;3.72;100.00
28167;BME280;15455;53.376;-6.262;2024-02-26T01:42:44;100901.00;;;3.69;100.00
28167;BME280;15455;53.376;-6.262;2024-02-26T01:45:29;100906.03;;;3.64;100.00
28167;BME280;15455;53.376;-6.262;2024-02-26T01:48:15;100910.34;;;3.65;100.00
28167;BME280;15455;53.376;-6.262;2024-02-26T01:51:00;100922.44;;;3.66;100.00
28167;BME280;15455;53.376;-6.262;2024-02-26T01:53:46;100938.66;;;3.62;100.00
28167;BME280;15455;53.376;-6.262;2024-02-26T01:56:32;100952.50;;;3.64;100.00
28167;BME280;15455;53.376;-6.262;2024-02-26T01:59:19;100962.94;;;3.69;100.00
28167;BME280;15455;53.376;-6.262;2024-02-26T02:02:07;100968.94;;;3.68;100.00
28167;BME280;15455;53.376;-6.262;2024-02-26T02:04:56;100973.72;;;3.55;100.00
28167;BME280;15455;53.376;-6.262;2024-02-26T02:07:43;100985.44;;;3.44;100.00
28167;BME280;15455;53.376;-6.262;2024-02-26T02:10:28;100985.91;;;3.32;100.00
28167;BME280;15455;53.376;-6.262;2024-02-26T02:13:14;100996.78;;;3.22;100.00
28167;BME280;15455;53.376;-6.262;2024-02-26T02:16:00;101002.72;;;3.19;100.00
28167;BME280;15455;53.376;-6.262;2024-02-26T02:18:46;101011.88;;;3.09;100.00
28167;BME280;15455;53.376;-6.262;2024-02-26T02:21:32;101014.38;;;3.06;100.00
28167;BME280;15455;53.376;-6.262;2024-02-26T02:24:17;101007.41;;;3.04;100.00
28167;BME280;15455;53.376;-6.262;2024-02-26T02:27:03;101018.34;;;2.97;100.00
28167;BME280;15455;53.376;-6.262;2024-02-26T02:29:49;101036.25;;;2.92;100.00
28167;BME280;15455;53.376;-6.262;2024-02-26T02:32:36;101038.53;;;2.84;100.00
28167;BME280;15455;53.376;-6.262;2024-02-26T02:35:23;101041.78;;;2.78;100.00
28167;BME280;15455;53.376;-6.262;2024-02-26T02:38:09;101037.28;;;2.73;100.00
28167;BME280;15455;53.376;-6.262;2024-02-26T02:40:54;101046.63;;;2.69;100.00
28167;BME280;15455;53.376;-6.262;2024-02-26T02:43:40;101057.72;;;2.67;100.00
28167;BME280;15455;53.376;-6.262;2024-02-26T02:46:26;101062.56;;;2.57;100.00
28167;BME280;15455;53.376;-6.262;2024-02-26T02:49:11;101074.28;;;2.49;100.00
28167;BME280;15455;53.376;-6.262;2024-02-26T02:51:57;101084.31;;;2.41;100.00
28167;BME280;15455;53.376;-6.262;2024-02-26T02:54:43;101082.50;;;2.39;100.00
28167;BME280;15455;53.376;-6.262;2024-02-26T02:57:29;101095.53;;;2.43;100.00
28167;BME280;15455;53.376;-6.262;2024-02-26T03:00:16;101109.28;;;2.44;100.00
28167;BME280;15455;53.376;-6.262;2024-02-26T03:03:02;101120.44;;;2.43;100.00
28167;BME280;15455;53.376;-6.262;2024-02-26T03:05:47;101119.44;;;2.39;100.00
28167;BME280;15455;53.376;-6.262;2024-02-26T03:08:33;101128.00;;;2.38;100.00
28167;BME280;15455;53.376;-6.262;2024-02-26T03:11:22;101128.00;;;2.38;100.00
28167;BME280;15455;53.376;-6.262;2024-02-26T03:14:08;101124.41;;;2.35;100.00
28167;BME280;15455;53.376;-6.262;2024-02-26T03:16:55;101144.09;;;2.33;100.00
28167;BME280;15455;53.376;-6.262;2024-02-26T03:19:40;101145.94;;;2.37;100.00
28167;BME280;15455;53.376;-6.262;2024-02-26T03:22:26;101155.53;;;2.41;100.00
28167;BME280;15455;53.376;-6.262;2024-02-26T03:25:12;101158.19;;;2.42;100.00
28167;BME280;15455;53.376;-6.262;2024-02-26T03:27:58;101168.25;;;2.36;100.00
28167;BME280;15455;53.376;-6.262;2024-02-26T03:30:43;101165.41;;;2.29;100.00
28167;BME280;15455;53.376;-6.262;2024-02-26T03:33:29;101170.25;;;2.21;100.00
28167;BME280;15455;53.376;-6.262;2024-02-26T03:36:15;101168.41;;;2.17;100.00
28167;BME280;15455;53.376;-6.262;2024-02-26T03:39:00;101162.19;;;2.12;100.00
28167;BME280;15455;53.376;-6.262;2024-02-26T03:41:48;101171.50;;;2.08;100.00
28167;BME280;15455;53.376;-6.262;2024-02-26T03:44:34;101179.91;;;2.04;100.00
28167;BME280;15455;53.376;-6.262;2024-02-26T03:47:19;101196.84;;;1.99;100.00
28167;BME280;15455;53.376;-6.262;2024-02-26T03:50:06;101210.25;;;1.90;100.00
28167;BME280;15455;53.376;-6.262;2024-02-26T03:52:52;101223.63;;;1.81;100.00
28167;BME280;15455;53.376;-6.262;2024-02-26T03:55:39;101224.94;;;1.71;100.00
28167;BME280;15455;53.376;-6.262;2024-02-26T03:58:27;101238.41;;;1.66;100.00
28167;BME280;15455;53.376;-6.262;2024-02-26T04:01:12;101259.75;;;1.63;100.00
28167;BME280;15455;53.376;-6.262;2024-02-26T04:03:58;101264.75;;;1.60;100.00
28167;BME280;15455;53.376;-6.262;2024-02-26T04:06:47;101264.63;;;1.57;100.00
28167;BME280;15455;53.376;-6.262;2024-02-26T04:09:33;101268.72;;;1.52;100.00
28167;BME280;15455;53.376;-6.262;2024-02-26T04:12:19;101275.22;;;1.44;100.00
28167;BME280;15455;53.376;-6.262;2024-02-26T04:15:05;101270.50;;;1.33;100.00
28167;BME280;15455;53.376;-6.262;2024-02-26T04:17:50;101275.38;;;1.27;100.00
28167;BME280;15455;53.376;-6.262;2024-02-26T04:20:36;101289.78;;;1.24;100.00
28167;BME280;15455;53.376;-6.262;2024-02-26T04:23:22;101306.13;;;1.26;100.00
28167;BME280;15455;53.376;-6.262;2024-02-26T04:26:08;101303.72;;;1.29;100.00
28167;BME280;15455;53.376;-6.262;2024-02-26T04:28:53;101305.31;;;1.27;100.00
28167;BME280;15455;53.376;-6.262;2024-02-26T04:31:39;101325.16;;;1.29;100.00
28167;BME280;15455;53.376;-6.262;2024-02-26T04:34:25;101332.75;;;1.26;100.00
28167;BME280;15455;53.376;-6.262;2024-02-26T04:37:10;101341.47;;;1.30;100.00
28167;BME280;15455;53.376;-6.262;2024-02-26T04:39:58;101339.72;;;1.29;100.00
28167;BME280;15455;53.376;-6.262;2024-02-26T04:42:44;101354.97;;;1.26;100.00
28167;BME280;15455;53.376;-6.262;2024-02-26T04:45:30;101353.97;;;1.22;100.00
28167;BME280;15455;53.376;-6.262;2024-02-26T04:48:15;101363.16;;;1.17;100.00
28167;BME280;15455;53.376;-6.262;2024-02-26T04:51:02;101362.16;;;1.13;100.00
28167;BME280;15455;53.376;-6.262;2024-02-26T04:53:48;101364.59;;;1.10;100.00
28167;BME280;15455;53.376;-6.262;2024-02-26T04:56:34;101374.81;;;1.09;100.00
28167;BME280;15455;53.376;-6.262;2024-02-26T04:59:20;101379.94;;;1.09;100.00
28167;BME280;15455;53.376;-6.262;2024-02-26T05:02:05;101386.91;;;1.11;100.00
28167;BME280;15455;53.376;-6.262;2024-02-26T05:04:51;101395.78;;;1.18;100.00
28167;BME280;15455;53.376;-6.262;2024-02-26T05:07:40;101400.25;;;1.22;100.00
28167;BME280;15455;53.376;-6.262;2024-02-26T05:10:27;101408.78;;;1.21;100.00
28167;BME280;15455;53.376;-6.262;2024-02-26T05:13:13;101412.38;;;1.25;100.00
28167;BME280;15455;53.376;-6.262;2024-02-26T05:16:00;101408.91;;;1.24;100.00
28167;BME280;15455;53.376;-6.262;2024-02-26T05:18:46;101419.38;;;1.27;100.00
28167;BME280;15455;53.376;-6.262;2024-02-26T05:21:32;101426.44;;;1.33;100.00
28167;BME280;15455;53.376;-6.262;2024-02-26T05:24:19;101435.94;;;1.34;100.00
28167;BME280;15455;53.376;-6.262;2024-02-26T05:27:08;101442.56;;;1.29;100.00
28167;BME280;15455;53.376;-6.262;2024-02-26T05:29:54;101454.25;;;1.22;100.00
28167;BME280;15455;53.376;-6.262;2024-02-26T05:32:39;101457.75;;;1.24;100.00
28167;BME280;15455;53.376;-6.262;2024-02-26T05:35:26;101461.16;;;1.23;100.00
28167;BME280;15455;53.376;-6.262;2024-02-26T05:38:11;101469.09;;;1.28;100.00
28167;BME280;15455;53.376;-6.262;2024-02-26T05:41:00;101478.41;;;1.26;100.00
28167;BME280;15455;53.376;-6.262;2024-02-26T05:43:46;101476.53;;;1.21;100.00
28167;BME280;15455;53.376;-6.262;2024-02-26T05:46:31;101490.03;;;1.17;100.00
28167;BME280;15455;53.376;-6.262;2024-02-26T05:49:16;101491.06;;;1.21;100.00
28167;BME280;15455;53.376;-6.262;2024-02-26T05:52:02;101509.78;;;1.18;100.00
28167;BME280;15455;53.376;-6.262;2024-02-26T05:54:48;101505.16;;;1.11;100.00
28167;BME280;15455;53.376;-6.262;2024-02-26T05:57:34;101514.34;;;1.06;100.00
28167;BME280;15455;53.376;-6.262;2024-02-26T06:00:20;101515.78;;;1.01;100.00
28167;BME280;15455;53.376;-6.262;2024-02-26T06:03:06;101514.72;;;0.96;100.00
28167;BME280;15455;53.376;-6.262;2024-02-26T06:05:52;101506.84;;;0.93;100.00
28167;BME280;15455;53.376;-6.262;2024-02-26T06:08:38;101497.38;;;0.92;100.00
28167;BME280;15455;53.376;-6.262;2024-02-26T06:11:24;101501.47;;;0.88;100.00
28167;BME280;15455;53.376;-6.262;2024-02-26T06:14:09;101504.03;;;0.88;100.00
28167;BME280;15455;53.376;-6.262;2024-02-26T06:16:56;101510.06;;;0.89;100.00
28167;BME280;15455;53.376;-6.262;2024-02-26T06:19:42;101520.06;;;0.82;100.00
28167;BME280;15455;53.376;-6.262;2024-02-26T06:22:29;101517.16;;;0.76;100.00
28167;BME280;15455;53.376;-6.262;2024-02-26T06:25:15;101522.06;;;0.72;100.00
28167;BME280;15455;53.376;-6.262;2024-02-26T06:28:00;101521.84;;;0.67;100.00
28167;BME280;15455;53.376;-6.262;2024-02-26T06:30:46;101535.25;;;0.61;100.00
28167;BME280;15455;53.376;-6.262;2024-02-26T06:33:32;101525.31;;;0.51;100.00
28167;BME280;15455;53.376;-6.262;2024-02-26T06:36:18;101535.91;;;0.57;100.00
28167;BME280;15455;53.376;-6.262;2024-02-26T06:39:03;101544.75;;;0.62;100.00
28167;BME280;15455;53.376;-6.262;2024-02-26T06:41:50;101555.63;;;0.75;100.00
28167;BME280;15455;53.376;-6.262;2024-02-26T06:44:39;101560.25;;;0.82;100.00
28167;BME280;15455;53.376;-6.262;2024-02-26T06:47:25;101565.06;;;0.92;100.00
28167;BME280;15455;53.376;-6.262;2024-02-26T06:50:12;101579.91;;;0.98;100.00
28167;BME280;15455;53.376;-6.262;2024-02-26T06:52:58;101591.88;;;0.97;100.00
28167;BME280;15455;53.376;-6.262;2024-02-26T06:55:44;101597.09;;;0.99;100.00
28167;BME280;15455;53.376;-6.262;2024-02-26T06:58:29;101596.22;;;0.98;100.00
28167;BME280;15455;53.376;-6.262;2024-02-26T07:01:15;101606.50;;;0.98;100.00
28167;BME280;15455;53.376;-6.262;2024-02-26T07:04:00;101599.03;;;1.03;100.00
28167;BME280;15455;53.376;-6.262;2024-02-26T07:06:47;101598.03;;;1.01;100.00
28167;BME280;15455;53.376;-6.262;2024-02-26T07:09:33;101597.25;;;1.02;100.00
28167;BME280;15455;53.376;-6.262;2024-02-26T07:12:18;101605.03;;;1.03;100.00
28167;BME280;15455;53.376;-6.262;2024-02-26T07:15:07;101604.25;;;1.04;100.00
28167;BME280;15455;53.376;-6.262;2024-02-26T07:17:53;101606.00;;;1.06;100.00
28167;BME280;15455;53.376;-6.262;2024-02-26T07:20:39;101612.75;;;1.03;100.00
28167;BME280;15455;53.376;-6.262;2024-02-26T07:23:24;101627.06;;;0.98;100.00
28167;BME280;15455;53.376;-6.262;2024-02-26T07:26:10;101621.44;;;0.89;100.00
28167;BME280;15455;53.376;-6.262;2024-02-26T07:28:57;101624.44;;;0.80;100.00
28167;BME280;15455;53.376;-6.262;2024-02-26T07:31:43;101631.09;;;0.77;100.00
28167;BME280;15455;53.376;-6.262;2024-02-26T07:34:28;101637.03;;;0.76;100.00
28167;BME280;15455;53.376;-6.262;2024-02-26T07:37:15;101633.34;;;0.71;100.00
28167;BME280;15455;53.376;-6.262;2024-02-26T07:40:01;101638.47;;;0.71;100.00
28167;BME280;15455;53.376;-6.262;2024-02-26T07:42:47;101641.19;;;0.74;100.00
28167;BME280;15455;53.376;-6.262;2024-02-26T07:45:32;101644.84;;;0.77;100.00
28167;BME280;15455;53.376;-6.262;2024-02-26T07:48:18;101645.69;;;0.78;100.00
28167;BME280;15455;53.376;-6.262;2024-02-26T07:51:04;101660.25;;;0.77;100.00
28167;BME280;15455;53.376;-6.262;2024-02-26T07:53:50;101671.31;;;0.76;100.00
28167;BME280;15455;53.376;-6.262;2024-02-26T07:56:38;101669.81;;;0.80;100.00
28167;BME280;15455;53.376;-6.262;2024-02-26T07:59:23;101684.50;;;0.82;100.00
28167;BME280;15455;53.376;-6.262;2024-02-26T08:02:09;101686.25;;;0.83;100.00
28167;BME280;15455;53.376;-6.262;2024-02-26T08:04:55;101691.06;;;0.94;100.00
28167;BME280;15455;53.376;-6.262;2024-02-26T08:07:40;101703.50;;;1.02;100.00
28167;BME280;15455;53.376;-6.262;2024-02-26T08:10:26;101706.97;;;1.03;100.00
28167;BME280;15455;53.376;-6.262;2024-02-26T08:13:16;101709.94;;;1.11;100.00
28167;BME280;15455;53.376;-6.262;2024-02-26T08:16:02;101720.53;;;1.17;100.00
28167;BME280;15455;53.376;-6.262;2024-02-26T08:18:48;101722.38;;;1.19;100.00
28167;BME280;15455;53.376;-6.262;2024-02-26T08:21:34;101735.16;;;1.34;100.00
28167;BME280;15455;53.376;-6.262;2024-02-26T08:24:19;101740.75;;;1.44;100.00
28167;BME280;15455;53.376;-6.262;2024-02-26T08:27:05;101738.63;;;1.53;100.00
28167;BME280;15455;53.376;-6.262;2024-02-26T08:29:52;101743.97;;;1.56;100.00
28167;BME280;15455;53.376;-6.262;2024-02-26T08:32:37;101747.56;;;1.60;100.00
28167;BME280;15455;53.376;-6.262;2024-02-26T08:35:22;101755.91;;;1.72;100.00
28167;BME280;15455;53.376;-6.262;2024-02-26T08:38:08;101764.06;;;1.81;100.00
28167;BME280;15455;53.376;-6.262;2024-02-26T08:40:53;101756.66;;;1.87;100.00
28167;BME280;15455;53.376;-6.262;2024-02-26T08:43:39;101761.38;;;1.96;100.00
28167;BME280;15455;53.376;-6.262;2024-02-26T08:46:25;101759.31;;;2.07;100.00
28167;BME280;15455;53.376;-6.262;2024-02-26T08:49:11;101779.50;;;2.16;100.00
28167;BME280;15455;53.376;-6.262;2024-02-26T08:51:57;101778.19;;;2.24;100.00
28167;BME280;15455;53.376;-6.262;2024-02-26T08:54:43;101789.56;;;2.29;100.00
28167;BME280;15455;53.376;-6.262;2024-02-26T08:57:28;101789.84;;;2.35;100.00
28167;BME280;15455;53.376;-6.262;2024-02-26T09:00:14;101792.75;;;2.41;100.00
28167;BME280;15455;53.376;-6.262;2024-02-26T09:03:01;101797.59;;;2.53;100.00
28167;BME280;15455;53.376;-6.262;2024-02-26T09:05:50;101795.44;;;2.63;100.00
28167;BME280;15455;53.376;-6.262;2024-02-26T09:08:36;101806.13;;;2.70;100.00
28167;BME280;15455;53.376;-6.262;2024-02-26T09:11:22;101790.13;;;2.77;100.00
28167;BME280;15455;53.376;-6.262;2024-02-26T09:14:07;101786.44;;;2.90;100.00
28167;BME280;15455;53.376;-6.262;2024-02-26T09:16:53;101789.47;;;3.01;100.00
28167;BME280;15455;53.376;-6.262;2024-02-26T09:19:39;101788.34;;;3.14;100.00
28167;BME280;15455;53.376;-6.262;2024-02-26T09:22:25;101792.41;;;3.28;100.00
28167;BME280;15455;53.376;-6.262;2024-02-26T09:25:10;101793.69;;;3.38;100.00
28167;BME280;15455;53.376;-6.262;2024-02-26T09:27:56;101791.38;;;3.44;100.00
28167;BME280;15455;53.376;-6.262;2024-02-26T09:30:42;101800.22;;;3.50;100.00
28167;BME280;15455;53.376;-6.262;2024-02-26T09:33:27;101802.25;;;3.57;100.00
28167;BME280;15455;53.376;-6.262;2024-02-26T09:36:13;101808.59;;;3.65;100.00
28167;BME280;15455;53.376;-6.262;2024-02-26T09:38:59;101804.66;;;3.73;100.00
28167;BME280;15455;53.376;-6.262;2024-02-26T09:41:47;101816.88;;;3.77;100.00
28167;BME280;15455;53.376;-6.262;2024-02-26T09:44:36;101828.50;;;3.87;100.00
28167;BME280;15455;53.376;-6.262;2024-02-26T09:47:24;101828.88;;;3.96;100.00
28167;BME280;15455;53.376;-6.262;2024-02-26T09:50:13;101839.72;;;4.09;100.00
28167;BME280;15455;53.376;-6.262;2024-02-26T09:53:00;101833.34;;;4.22;100.00
28167;BME280;15455;53.376;-6.262;2024-02-26T09:55:48;101821.69;;;4.31;100.00
28167;BME280;15455;53.376;-6.262;2024-02-26T09:58:34;101807.44;;;4.41;100.00
28167;BME280;15455;53.376;-6.262;2024-02-26T10:01:22;101804.28;;;4.48;100.00
28167;BME280;15455;53.376;-6.262;2024-02-26T10:04:11;101807.34;;;4.61;100.00
28167;BME280;15455;53.376;-6.262;2024-02-26T10:06:57;101797.13;;;4.64;100.00
28167;BME280;15455;53.376;-6.262;2024-02-26T10:09:45;101796.50;;;4.69;100.00
28167;BME280;15455;53.376;-6.262;2024-02-26T10:12:31;101783.72;;;4.74;100.00
28167;BME280;15455;53.376;-6.262;2024-02-26T10:15:18;101779.59;;;4.79;100.00
28167;BME280;15455;53.376;-6.262;2024-02-26T10:18:05;101772.03;;;4.84;100.00
28167;BME280;15455;53.376;-6.262;2024-02-26T10:21:01;101776.63;;;4.91;100.00
28167;BME280;15455;53.376;-6.262;2024-02-26T10:23:48;101769.06;;;4.97;100.00
28167;BME280;15455;53.376;-6.262;2024-02-26T10:26:34;101771.75;;;5.00;100.00
28167;BME280;15455;53.376;-6.262;2024-02-26T10:29:20;101776.22;;;5.04;100.00
28167;BME280;15455;53.376;-6.262;2024-02-26T10:32:07;101785.03;;;5.10;100.00
28167;BME280;15455;53.376;-6.262;2024-02-26T10:34:56;101777.47;;;5.14;100.00
28167;BME280;15455;53.376;-6.262;2024-02-26T10:37:42;101776.06;;;5.24;100.00
28167;BME280;15455;53.376;-6.262;2024-02-26T10:40:27;101771.06;;;5.29;100.00
28167;BME280;15455;53.376;-6.262;2024-02-26T10:43:13;101767.94;;;5.37;100.00
28167;BME280;15455;53.376;-6.262;2024-02-26T10:46:00;101770.78;;;5.45;100.00
28167;BME280;15455;53.376;-6.262;2024-02-26T10:48:52;101769.41;;;5.55;100.00
28167;BME280;15455;53.376;-6.262;2024-02-26T10:51:41;101767.81;;;5.60;100.00
28167;BME280;15455;53.376;-6.262;2024-02-26T10:54:29;101770.47;;;5.62;100.00
28167;BME280;15455;53.376;-6.262;2024-02-26T10:57:15;101774.09;;;5.67;100.00
28167;BME280;15455;53.376;-6.262;2024-02-26T11:00:04;101772.50;;;5.70;100.00
28167;BME280;15455;53.376;-6.262;2024-02-26T11:02:51;101784.00;;;5.79;100.00
28167;BME280;15455;53.376;-6.262;2024-02-26T11:05:37;101801.31;;;5.80;100.00
28167;BME280;15455;53.376;-6.262;2024-02-26T11:08:25;101806.53;;;5.81;100.00
28167;BME280;15455;53.376;-6.262;2024-02-26T11:11:12;101811.81;;;5.84;100.00
28167;BME280;15455;53.376;-6.262;2024-02-26T11:14:01;101813.03;;;5.94;100.00
28167;BME280;15455;53.376;-6.262;2024-02-26T11:16:49;101821.03;;;6.00;100.00
28167;BME280;15455;53.376;-6.262;2024-02-26T11:19:35;101828.19;;;6.07;100.00
28167;BME280;15455;53.376;-6.262;2024-02-26T11:22:24;101831.97;;;6.17;100.00
28167;BME280;15455;53.376;-6.262;2024-02-26T11:25:11;101834.84;;;6.26;100.00
28167;BME280;15455;53.376;-6.262;2024-02-26T11:28:02;101830.75;;;6.33;100.00
28167;BME280;15455;53.376;-6.262;2024-02-26T11:30:49;101832.72;;;6.40;100.00
28167;BME280;15455;53.376;-6.262;2024-02-26T11:33:35;101839.84;;;6.48;100.00
28167;BME280;15455;53.376;-6.262;2024-02-26T11:36:23;101848.38;;;6.43;100.00
28167;BME280;15455;53.376;-6.262;2024-02-26T11:39:11;101855.69;;;6.30;100.00
28167;BME280;15455;53.376;-6.262;2024-02-26T11:42:09;101878.00;;;6.24;100.00
28167;BME280;15455;53.376;-6.262;2024-02-26T11:44:56;101881.22;;;6.17;100.00
28167;BME280;15455;53.376;-6.262;2024-02-26T11:47:55;101890.19;;;6.27;100.00
28167;BME280;15455;53.376;-6.262;2024-02-26T11:50:43;101896.66;;;6.40;100.00
28167;BME280;15455;53.376;-6.262;2024-02-26T11:53:31;101900.09;;;6.39;100.00
28167;BME280;15455;53.376;-6.262;2024-02-26T11:59:10;101902.06;;;6.46;100.00
28167;BME280;15455;53.376;-6.262;2024-02-26T12:01:56;101910.59;;;6.43;100.00
28167;BME280;15455;53.376;-6.262;2024-02-26T12:04:46;101906.97;;;6.38;100.00
28167;BME280;15455;53.376;-6.262;2024-02-26T12:07:34;101907.97;;;6.42;100.00
28167;BME280;15455;53.376;-6.262;2024-02-26T12:10:28;101904.88;;;6.54;100.00
28167;BME280;15455;53.376;-6.262;2024-02-26T12:13:19;101921.81;;;6.70;100.00
28167;BME280;15455;53.376;-6.262;2024-02-26T12:16:05;101910.28;;;6.87;100.00
28167;BME280;15455;53.376;-6.262;2024-02-26T12:18:51;101905.91;;;7.13;100.00
28167;BME280;15455;53.376;-6.262;2024-02-26T12:21:37;101917.06;;;7.11;100.00
28167;BME280;15455;53.376;-6.262;2024-02-26T12:24:23;101924.78;;;7.08;100.00
28167;BME280;15455;53.376;-6.262;2024-02-26T12:27:09;101924.13;;;7.15;100.00
28167;BME280;15455;53.376;-6.262;2024-02-26T12:29:54;101923.44;;;7.21;100.00
28167;BME280;15455;53.376;-6.262;2024-02-26T12:32:40;101921.00;;;7.27;100.00
28167;BME280;15455;53.376;-6.262;2024-02-26T12:35:27;101915.00;;;7.28;100.00
28167;BME280;15455;53.376;-6.262;2024-02-26T12:38:14;101912.31;;;7.26;100.00
28167;BME280;15455;53.376;-6.262;2024-02-26T12:41:00;101915.97;;;7.32;100.00
28167;BME280;15455;53.376;-6.262;2024-02-26T12:43:46;101911.97;;;7.43;100.00
28167;BME280;15455;53.376;-6.262;2024-02-26T12:46:35;101911.31;;;7.50;100.00
28167;BME280;15455;53.376;-6.262;2024-02-26T12:49:21;101908.00;;;7.56;100.00
28167;BME280;15455;53.376;-6.262;2024-02-26T12:52:07;101909.09;;;7.64;100.00
28167;BME280;15455;53.376;-6.262;2024-02-26T12:54:52;101902.31;;;7.69;100.00
28167;BME280;15455;53.376;-6.262;2024-02-26T12:57:38;101901.69;;;7.78;100.00
28167;BME280;15455;53.376;-6.262;2024-02-26T13:00:27;101888.59;;;7.75;100.00
28167;BME280;15455;53.376;-6.262;2024-02-26T13:03:13;101900.97;;;7.83;100.00
28167;BME280;15455;53.376;-6.262;2024-02-26T13:05:59;101912.66;;;7.99;100.00
28167;BME280;15455;53.376;-6.262;2024-02-26T13:08:46;101912.59;;;7.96;100.00
28167;BME280;15455;53.376;-6.262;2024-02-26T13:11:32;101918.31;;;7.83;100.00
28167;BME280;15455;53.376;-6.262;2024-02-26T13:14:21;101906.13;;;7.82;100.00
28167;BME280;15455;53.376;-6.262;2024-02-26T13:17:08;101907.22;;;7.90;100.00
28167;BME280;15455;53.376;-6.262;2024-02-26T13:19:54;101910.91;;;7.98;100.00
28167;BME280;15455;53.376;-6.262;2024-02-26T13:22:40;101914.59;;;8.07;100.00
28167;BME280;15455;53.376;-6.262;2024-02-26T13:25:25;101911.81;;;7.99;100.00
28167;BME280;15455;53.376;-6.262;2024-02-26T13:28:16;101912.97;;;8.10;100.00
28167;BME280;15455;53.376;-6.262;2024-02-26T13:31:03;101912.22;;;8.16;100.00
28167;BME280;15455;53.376;-6.262;2024-02-26T13:33:51;101910.94;;;8.32;100.00
28167;BME280;15455;53.376;-6.262;2024-02-26T13:36:38;101917.22;;;8.42;100.00
28167;BME280;15455;53.376;-6.262;2024-02-26T13:39:25;101923.38;;;8.44;100.00
28167;BME280;15455;53.376;-6.262;2024-02-26T13:42:11;101915.91;;;8.24;100.00
28167;BME280;15455;53.376;-6.262;2024-02-26T13:44:57;101917.06;;;8.35;100.00
28167;BME280;15455;53.376;-6.262;2024-02-26T13:47:42;101912.16;;;8.46;100.00
28167;BME280;15455;53.376;-6.262;2024-02-26T13:50:28;101922.81;;;8.56;100.00
28167;BME280;15455;53.376;-6.262;2024-02-26T13:53:14;101911.72;;;8.63;100.00
28167;BME280;15455;53.376;-6.262;2024-02-26T13:56:01;101926.31;;;8.58;100.00
28167;BME280;15455;53.376;-6.262;2024-02-26T13:58:49;101924.03;;;8.37;100.00
28167;BME280;15455;53.376;-6.262;2024-02-26T14:01:35;101922.38;;;8.40;100.00
28167;BME280;15455;53.376;-6.262;2024-02-26T14:04:20;101917.75;;;8.62;100.00
28167;BME280;15455;53.376;-6.262;2024-02-26T14:07:07;101919.59;;;8.66;100.00
28167;BME280;15455;53.376;-6.262;2024-02-26T14:09:53;101927.28;;;8.61;100.00
28167;BME280;15455;53.376;-6.262;2024-02-26T14:12:39;101929.41;;;8.78;100.00
28167;BME280;15455;53.376;-6.262;2024-02-26T14:15:25;101928.88;;;8.91;100.00
28167;BME280;15455;53.376;-6.262;2024-02-26T14:18:10;101926.69;;;8.72;100.00
28167;BME280;15455;53.376;-6.262;2024-02-26T14:20:56;101922.56;;;8.46;100.00